Time;durP1;ratioP1;P1;durP2;ratioP2;P2;SDS_P1;SDS_P2;PMS_P1;PMS_P2;Temp;Humidity;BMP_temperature;BMP_pressure;BME280_temperature;BME280_humidity;BME280_pressure;Samples;Min_cycle;Max_cycle;Signal;HPM_P1;HPM_P2
2022/07/10 00:00:55;;;;;;;;;;;;;;;28.66;42.52;98958.88;2091872;28;19939;-51
2022/07/10 00:01:56;;;;;;;;;;;;;;;28.65;42.78;98962.69;2090557;28;19982;-53
2022/07/10 00:02:58;;;;;;;;;;;;;;;28.66;42.62;98958.03;2078142;28;20451;-50
2022/07/10 00:03:58;;;;;;;;;;;;;;;28.63;42.54;98959.38;2091038;28;20539;-51
2022/07/10 00:05:00;;;;;;;;;;;;;;;28.65;42.61;98954.50;2091880;28;19933;-51
2022/07/10 00:06:02;;;;;;;;;;;;;;;28.64;42.63;98955.59;2091123;28;19940;-52
2022/07/10 00:07:03;;;;;;;;;;;;;;;28.65;42.82;98956.41;2091979;28;19940;-49
2022/07/10 00:08:05;;;;;;;;;;;;;;;28.65;42.92;98961.88;2088957;28;20454;-51
2022/07/10 00:09:06;;;;;;;;;;;;;;;28.65;42.52;98962.69;2090567;28;19940;-49
2022/07/10 00:10:07;;;;;;;;;;;;;;;28.64;42.86;98961.06;2091029;28;19935;-48
2022/07/10 00:11:08;;;;;;;;;;;;;;;28.62;42.83;98962.41;2088099;28;19924;-51
2022/07/10 00:12:10;;;;;;;;;;;;;;;28.62;42.67;98960.47;2091061;28;20442;-50
2022/07/10 00:13:13;;;;;;;;;;;;;;;28.64;42.70;98963.78;2087513;28;19974;-52
2022/07/10 00:14:13;;;;;;;;;;;;;;;28.63;42.64;98964.84;2085833;28;19924;-51
2022/07/10 00:15:15;;;;;;;;;;;;;;;28.64;42.77;98963.78;2085071;28;19929;-52
2022/07/10 00:16:15;;;;;;;;;;;;;;;28.62;42.58;98968.66;2087553;28;20009;-50
2022/07/10 00:17:17;;;;;;;;;;;;;;;28.63;42.73;98959.38;2088830;28;20463;-52
2022/07/10 00:18:17;;;;;;;;;;;;;;;28.63;42.65;98964.84;2086068;28;20471;-50
2022/07/10 00:19:19;;;;;;;;;;;;;;;28.60;42.69;98957.19;2087853;28;19935;-53
2022/07/10 00:20:20;;;;;;;;;;;;;;;28.62;42.68;98957.75;2086885;28;19932;-50
2022/07/10 00:21:21;;;;;;;;;;;;;;;28.63;42.53;98959.38;2092127;28;19931;-51
2022/07/10 00:22:22;;;;;;;;;;;;;;;28.62;42.69;98954.22;2089934;28;19939;-53
2022/07/10 00:23:23;;;;;;;;;;;;;;;28.62;42.91;98957.75;2092044;28;20019;-51
2022/07/10 00:24:24;;;;;;;;;;;;;;;28.62;42.64;98956.94;2090156;28;19925;-52
2022/07/10 00:25:25;;;;;;;;;;;;;;;28.61;42.75;98956.13;2089344;28;19925;-49
2022/07/10 00:26:26;;;;;;;;;;;;;;;28.60;42.74;98954.47;2089798;28;19928;-52
2022/07/10 00:27:27;;;;;;;;;;;;;;;28.60;43.01;98951.72;2084513;28;19936;-52
2022/07/10 00:28:29;;;;;;;;;;;;;;;28.60;42.77;98946.28;2087659;28;19928;-52
2022/07/10 00:29:31;;;;;;;;;;;;;;;28.62;42.75;98946.84;2089899;28;19925;-49
2022/07/10 00:30:31;;;;;;;;;;;;;;;28.62;42.67;98951.47;2089356;28;20879;-50
2022/07/10 00:31:33;;;;;;;;;;;;;;;28.60;42.76;98948.19;2085412;28;20025;-51
2022/07/10 00:32:34;;;;;;;;;;;;;;;28.60;42.68;98948.19;2085298;28;19932;-49
2022/07/10 00:33:35;;;;;;;;;;;;;;;28.59;42.67;98946.56;2089801;28;20006;-49
2022/07/10 00:34:36;;;;;;;;;;;;;;;28.62;42.84;98952.31;2087070;28;19932;-50
2022/07/10 00:35:37;;;;;;;;;;;;;;;28.63;42.50;98953.13;2086559;28;19931;-48
2022/07/10 00:36:38;;;;;;;;;;;;;;;28.61;42.63;98947.94;2085470;28;19936;-50
2022/07/10 00:37:39;;;;;;;;;;;;;;;28.60;42.76;98949.00;2091772;28;19934;-49
2022/07/10 00:38:40;;;;;;;;;;;;;;;28.59;42.92;98950.09;2090068;28;19935;-51
2022/07/10 00:39:41;;;;;;;;;;;;;;;28.62;42.89;98954.22;2084619;28;19929;-48
2022/07/10 00:40:42;;;;;;;;;;;;;;;28.60;42.60;98949.00;2091841;28;20366;-53
2022/07/10 00:41:44;;;;;;;;;;;;;;;28.59;42.83;98950.09;2091430;28;19931;-50
2022/07/10 00:42:44;;;;;;;;;;;;;;;28.58;42.68;98945.69;2090069;28;19933;-50
2022/07/10 00:43:53;;;;;;;;;;;;;;;28.59;42.84;98943.81;2091875;28;19931;-58
2022/07/10 00:44:55;;;;;;;;;;;;;;;28.58;42.85;98940.25;2090168;28;20011;-49
2022/07/10 00:45:56;;;;;;;;;;;;;;;28.58;42.83;98942.16;2090666;28;19932;-49
2022/07/10 00:46:57;;;;;;;;;;;;;;;28.59;42.90;98952.00;2087747;28;20385;-48
2022/07/10 00:47:58;;;;;;;;;;;;;;;28.57;42.79;98946.78;2090495;28;19939;-48
2022/07/10 00:48:59;;;;;;;;;;;;;;;28.56;42.74;98945.16;2088808;28;19924;-52
2022/07/10 00:50:00;;;;;;;;;;;;;;;28.56;42.82;98947.91;2089909;28;20349;-51
2022/07/10 00:51:01;;;;;;;;;;;;;;;28.55;42.72;98940.78;2090528;28;20019;-52
2022/07/10 00:52:03;;;;;;;;;;;;;;;28.58;42.98;98939.44;2090303;28;19940;-48
2022/07/10 00:53:05;;;;;;;;;;;;;;;28.57;42.82;98935.88;2092071;28;19932;-51
2022/07/10 00:54:06;;;;;;;;;;;;;;;28.56;43.00;98936.97;2092120;28;19933;-48
2022/07/10 00:55:09;;;;;;;;;;;;;;;28.55;42.59;98932.59;2092599;28;20293;-49
2022/07/10 00:56:10;;;;;;;;;;;;;;;28.55;42.91;98923.59;2088787;28;20023;-48
2022/07/10 00:57:15;;;;;;;;;;;;;;;28.56;42.83;98931.53;2090214;28;19956;-50
2022/07/10 00:58:15;;;;;;;;;;;;;;;28.54;42.63;98938.31;2088725;28;19936;-48
2022/07/10 00:59:19;;;;;;;;;;;;;;;28.53;42.79;98929.31;2091699;28;19928;-50
2022/07/10 01:00:21;;;;;;;;;;;;;;;28.56;42.79;98928.78;2092534;28;20445;-50
2022/07/10 01:01:22;;;;;;;;;;;;;;;28.55;42.67;98929.84;2090179;28;19932;-50
2022/07/10 01:02:24;;;;;;;;;;;;;;;28.54;42.67;98928.22;2089160;28;20002;-50
2022/07/10 01:03:25;;;;;;;;;;;;;;;28.52;42.83;98930.38;2088083;28;19936;-50
2022/07/10 01:04:26;;;;;;;;;;;;;;;28.54;42.88;98935.59;2087673;28;20640;-49
2022/07/10 01:05:27;;;;;;;;;;;;;;;28.52;42.85;98930.38;2091102;28;20302;-48
2022/07/10 01:06:28;;;;;;;;;;;;;;;28.52;42.88;98931.19;2092267;28;19928;-51
2022/07/10 01:07:31;;;;;;;;;;;;;;;28.51;42.93;98929.56;2092173;28;19925;-50
2022/07/10 01:08:33;;;;;;;;;;;;;;;28.51;42.71;98935.03;2091516;28;19928;-49
2022/07/10 01:09:33;;;;;;;;;;;;;;;28.52;42.85;98931.19;2091312;28;21084;-50
2022/07/10 01:10:35;;;;;;;;;;;;;;;28.52;42.91;98930.38;2091959;28;19928;-49
2022/07/10 01:11:36;;;;;;;;;;;;;;;28.53;42.74;98929.31;2090493;28;19939;-48
2022/07/10 01:12:38;;;;;;;;;;;;;;;28.51;42.92;98929.56;2090564;28;19935;-50
2022/07/10 01:13:39;;;;;;;;;;;;;;;28.50;43.13;98932.53;2088894;28;19928;-48
2022/07/10 01:14:42;;;;;;;;;;;;;;;28.49;43.12;98930.91;2091463;28;19932;-49
2022/07/10 01:15:43;;;;;;;;;;;;;;;28.48;42.73;98934.72;2092471;28;19947;-48
2022/07/10 01:16:45;;;;;;;;;;;;;;;28.49;42.63;98930.91;2091832;28;19997;-49
2022/07/10 01:17:48;;;;;;;;;;;;;;;28.49;43.00;98931.72;2091679;28;20555;-52
2022/07/10 01:18:49;;;;;;;;;;;;;;;28.49;42.86;98934.47;2090901;28;20031;-52
2022/07/10 01:19:50;;;;;;;;;;;;;;;28.49;43.04;98928.19;2091981;28;20421;-49
2022/07/10 01:20:53;;;;;;;;;;;;;;;28.49;42.74;98936.38;2091976;28;19940;-50
2022/07/10 01:21:54;;;;;;;;;;;;;;;28.48;42.97;98927.38;2088398;28;20433;-51
2022/07/10 01:22:55;;;;;;;;;;;;;;;28.48;42.78;98926.56;2091613;28;19929;-50
2022/07/10 01:23:57;;;;;;;;;;;;;;;28.48;42.76;98929.28;2092214;28;19928;-48
2022/07/10 01:24:57;;;;;;;;;;;;;;;28.47;42.85;98925.72;2092038;28;19932;-50
2022/07/10 01:26:00;;;;;;;;;;;;;;;28.48;42.90;98927.38;2091976;28;19925;-50
2022/07/10 01:27:01;;;;;;;;;;;;;;;28.47;43.13;98916.69;2089190;28;20406;-48
2022/07/10 01:28:03;;;;;;;;;;;;;;;28.47;42.87;98917.53;2086765;28;19936;-51
2022/07/10 01:29:05;;;;;;;;;;;;;;;28.47;42.88;98917.53;2088524;28;19986;-50
2022/07/10 01:30:07;;;;;;;;;;;;;;;28.47;42.84;98917.53;2092537;28;20062;-52
2022/07/10 01:31:07;;;;;;;;;;;;;;;28.47;42.96;98912.09;2091397;28;19947;-49
2022/07/10 01:32:09;;;;;;;;;;;;;;;28.47;42.95;98911.25;2091662;28;19933;-50
2022/07/10 01:33:09;;;;;;;;;;;;;;;28.48;42.65;98916.44;2091877;28;19979;-48
2022/07/10 01:34:11;;;;;;;;;;;;;;;28.48;42.87;98916.44;2092355;28;20501;-48
2022/07/10 01:35:12;;;;;;;;;;;;;;;28.50;42.72;98916.16;2092240;28;20284;-48
2022/07/10 01:36:14;;;;;;;;;;;;;;;28.47;42.94;98917.53;2093277;28;19980;-48
2022/07/10 01:37:15;;;;;;;;;;;;;;;28.47;42.85;98908.50;2088282;28;20290;-49
2022/07/10 01:38:17;;;;;;;;;;;;;;;28.49;42.83;98912.63;2084129;28;19924;-48
2022/07/10 01:39:17;;;;;;;;;;;;;;;28.50;42.79;98911.56;2089516;28;19935;-48
2022/07/10 01:40:19;;;;;;;;;;;;;;;28.48;42.69;98910.19;2091745;28;19935;-51
2022/07/10 01:41:19;;;;;;;;;;;;;;;28.48;42.96;98918.38;2092479;28;19936;-52
2022/07/10 01:42:21;;;;;;;;;;;;;;;28.47;42.84;98913.97;2091118;28;19935;-50
2022/07/10 01:43:21;;;;;;;;;;;;;;;28.44;42.74;98909.84;2090589;28;19943;-50
2022/07/10 01:44:23;;;;;;;;;;;;;;;28.44;43.08;98909.03;2091107;28;19924;-50
2022/07/10 01:45:23;;;;;;;;;;;;;;;28.47;42.80;98913.97;2090662;28;20459;-49
2022/07/10 01:46:25;;;;;;;;;;;;;;;28.46;42.62;98906.88;2092578;28;19929;-50
2022/07/10 01:47:27;;;;;;;;;;;;;;;28.48;42.84;98908.25;2090963;28;19932;-52
2022/07/10 01:48:29;;;;;;;;;;;;;;;28.47;42.76;98908.50;2092124;28;19986;-50
2022/07/10 01:49:29;;;;;;;;;;;;;;;28.46;43.04;98909.59;2093659;28;19932;-50
2022/07/10 01:50:31;;;;;;;;;;;;;;;28.45;42.90;98914.25;2092944;28;20024;-52
2022/07/10 01:51:33;;;;;;;;;;;;;;;28.43;42.93;98910.13;2090509;28;19932;-48
2022/07/10 01:52:34;;;;;;;;;;;;;;;28.42;42.91;98905.75;2091465;28;20791;-52
2022/07/10 01:53:35;;;;;;;;;;;;;;;28.42;42.70;98909.31;2092447;28;19928;-48
2022/07/10 01:54:37;;;;;;;;;;;;;;;28.44;42.79;98903.59;2092452;28;19932;-51
2022/07/10 01:55:37;;;;;;;;;;;;;;;28.47;42.74;98908.50;2093222;28;19929;-51
2022/07/10 01:56:39;;;;;;;;;;;;;;;28.45;42.91;98908.78;2092328;28;19934;-50
2022/07/10 01:57:40;;;;;;;;;;;;;;;28.47;42.62;98909.38;2091983;28;20647;-51
2022/07/10 01:58:41;;;;;;;;;;;;;;;28.49;42.59;98904.44;2093208;28;19936;-49
2022/07/10 01:59:42;;;;;;;;;;;;;;;28.49;42.80;98900.91;2092414;28;20429;-48
2022/07/10 02:00:44;;;;;;;;;;;;;;;28.50;42.79;98899.81;2092959;28;20017;-48
2022/07/10 02:01:45;;;;;;;;;;;;;;;28.48;42.80;98902.00;2093320;28;19959;-51
2022/07/10 02:04:40;;;;;;;;;;;;;;;28.49;42.74;98903.63;2093025;28;19931;-50
2022/07/10 02:05:26;;;;;;;;;;;;;;;28.48;42.88;98893.81;2092921;28;20019;-48
2022/07/10 02:06:26;;;;;;;;;;;;;;;28.49;42.81;98898.16;2090741;28;19932;-49
2022/07/10 02:07:29;;;;;;;;;;;;;;;28.48;42.60;98896.53;2091545;28;20406;-47
2022/07/10 02:08:30;;;;;;;;;;;;;;;28.47;42.77;98890.25;2090777;28;19928;-49
2022/07/10 02:09:32;;;;;;;;;;;;;;;28.48;42.95;98891.91;2092910;28;19963;-48
2022/07/10 02:10:32;;;;;;;;;;;;;;;28.47;42.58;98889.41;2092524;28;19929;-50
2022/07/10 02:11:34;;;;;;;;;;;;;;;28.50;42.82;98891.63;2091617;28;19925;-46
2022/07/10 02:12:34;;;;;;;;;;;;;;;28.50;42.72;98894.34;2090081;28;19932;-48
2022/07/10 02:13:36;;;;;;;;;;;;;;;28.48;42.63;98893.81;2088824;28;19986;-49
2022/07/10 02:14:37;;;;;;;;;;;;;;;28.47;42.64;98901.19;2091467;28;20309;-49
2022/07/10 02:15:38;;;;;;;;;;;;;;;28.46;43.02;98894.06;2093028;28;19940;-50
2022/07/10 02:16:39;;;;;;;;;;;;;;;28.47;42.68;98895.72;2092533;28;19928;-50
2022/07/10 02:17:40;;;;;;;;;;;;;;;28.47;42.81;98897.59;2092913;28;20019;-48
2022/07/10 02:18:41;;;;;;;;;;;;;;;28.47;42.77;98898.44;2092561;28;19924;-51
2022/07/10 02:19:43;;;;;;;;;;;;;;;28.49;42.75;98892.72;2090815;28;19989;-47
2022/07/10 02:20:43;;;;;;;;;;;;;;;28.48;42.65;98891.91;2090866;28;20487;-50
2022/07/10 02:21:45;;;;;;;;;;;;;;;28.49;42.81;98889.97;2093217;28;19928;-48
2022/07/10 02:22:47;;;;;;;;;;;;;;;28.50;42.98;98886.16;2091553;28;19924;-48
2022/07/10 02:23:49;;;;;;;;;;;;;;;28.50;42.79;98886.16;2093566;28;19977;-50
2022/07/10 02:24:49;;;;;;;;;;;;;;;28.50;42.50;98889.72;2091066;28;20061;-50
2022/07/10 02:25:51;;;;;;;;;;;;;;;28.50;42.67;98888.88;2092119;28;19928;-47
2022/07/10 02:26:54;;;;;;;;;;;;;;;28.49;42.69;98888.06;2090460;28;19990;-49
2022/07/10 02:27:55;;;;;;;;;;;;;;;28.47;42.70;98893.00;2088738;28;20051;-49
2022/07/10 02:28:57;;;;;;;;;;;;;;;28.45;42.78;98886.16;2089651;28;20089;-48
2022/07/10 02:29:57;;;;;;;;;;;;;;;28.45;42.84;98886.97;2092855;28;20339;-50
2022/07/10 02:30:59;;;;;;;;;;;;;;;28.46;43.03;98893.25;2090963;28;19932;-49
2022/07/10 02:32:00;;;;;;;;;;;;;;;28.47;42.59;98889.41;2091625;28;19924;-48
2022/07/10 02:33:01;;;;;;;;;;;;;;;28.48;42.66;98893.81;2088578;28;20282;-50
2022/07/10 02:34:02;;;;;;;;;;;;;;;28.46;42.97;98893.25;2092247;28;20015;-47
2022/07/10 02:35:03;;;;;;;;;;;;;;;28.45;42.69;98902.53;2092756;28;19935;-49
2022/07/10 02:36:05;;;;;;;;;;;;;;;28.45;42.89;98891.59;2092106;28;19950;-49
2022/07/10 02:37:06;;;;;;;;;;;;;;;28.44;42.84;98887.22;2092700;28;19931;-49
2022/07/10 02:38:09;;;;;;;;;;;;;;;28.46;42.89;98891.31;2090843;28;20290;-49
2022/07/10 02:39:09;;;;;;;;;;;;;;;28.45;42.97;98884.25;2092591;28;19928;-47
2022/07/10 02:40:11;;;;;;;;;;;;;;;28.45;42.77;98881.50;2092299;28;19963;-51
2022/07/10 02:41:12;;;;;;;;;;;;;;;28.45;42.69;98891.59;2090823;28;20011;-48
2022/07/10 02:42:13;;;;;;;;;;;;;;;28.45;42.84;98892.41;2090380;28;19939;-47
2022/07/10 02:43:14;;;;;;;;;;;;;;;28.46;42.61;98887.78;2092788;28;20306;-49
2022/07/10 02:44:16;;;;;;;;;;;;;;;28.45;42.77;98886.97;2092733;28;19924;-47
2022/07/10 02:45:16;;;;;;;;;;;;;;;28.45;42.71;98884.25;2092393;28;20009;-47
2022/07/10 02:46:18;;;;;;;;;;;;;;;28.44;42.75;98879.84;2089874;28;19936;-50
2022/07/10 02:47:18;;;;;;;;;;;;;;;28.45;42.78;98880.69;2092437;28;20560;-48
2022/07/10 02:48:20;;;;;;;;;;;;;;;28.45;42.83;98881.50;2092774;28;19932;-49
2022/07/10 02:49:20;;;;;;;;;;;;;;;28.44;42.53;98881.75;2091067;28;19924;-48
2022/07/10 02:50:22;;;;;;;;;;;;;;;28.43;42.70;98878.22;2088897;28;20081;-47
2022/07/10 02:51:23;;;;;;;;;;;;;;;28.42;42.99;98879.31;2092853;28;20023;-47
2022/07/10 02:52:24;;;;;;;;;;;;;;;28.42;42.60;98875.72;2091702;28;19983;-49
2022/07/10 02:53:26;;;;;;;;;;;;;;;28.44;42.72;98879.03;2093103;28;19940;-48
2022/07/10 02:54:28;;;;;;;;;;;;;;;28.43;42.75;98875.47;2090845;28;19959;-49
2022/07/10 02:55:28;;;;;;;;;;;;;;;28.44;42.54;98879.84;2092306;28;19944;-48
2022/07/10 02:56:30;;;;;;;;;;;;;;;28.44;42.68;98884.50;2091132;28;20019;-48
2022/07/10 02:57:30;;;;;;;;;;;;;;;28.43;42.76;98880.94;2088777;28;19932;-49
2022/07/10 02:58:32;;;;;;;;;;;;;;;28.45;42.93;98886.16;2092361;28;19999;-49
2022/07/10 02:59:33;;;;;;;;;;;;;;;28.44;42.72;98879.03;2091722;28;19936;-50
2022/07/10 03:00:34;;;;;;;;;;;;;;;28.43;42.58;98883.66;2091650;28;19971;-46
2022/07/10 03:01:35;;;;;;;;;;;;;;;28.44;42.58;98884.50;2093157;28;19929;-49
2022/07/10 03:02:37;;;;;;;;;;;;;;;28.44;42.54;98881.75;2091953;28;20647;-50
2022/07/10 03:03:37;;;;;;;;;;;;;;;28.42;42.78;98881.19;2088283;28;20276;-47
2022/07/10 03:04:39;;;;;;;;;;;;;;;28.42;42.83;98881.19;2092300;28;19948;-49
2022/07/10 03:05:39;;;;;;;;;;;;;;;28.42;42.84;98881.19;2091907;28;20664;-48
2022/07/10 03:06:41;;;;;;;;;;;;;;;28.42;42.58;98878.47;2092133;28;19932;-49
2022/07/10 03:07:41;;;;;;;;;;;;;;;28.42;42.66;98881.19;2091906;28;19925;-49
2022/07/10 03:08:44;;;;;;;;;;;;;;;28.42;42.77;98882.03;2091532;28;19928;-48
2022/07/10 03:09:45;;;;;;;;;;;;;;;28.42;42.74;98883.91;2091726;28;20391;-50
2022/07/10 03:10:46;;;;;;;;;;;;;;;28.43;42.63;98880.13;2090876;28;19940;-49
2022/07/10 03:11:47;;;;;;;;;;;;;;;28.42;42.74;98881.19;2087685;28;19929;-48
2022/07/10 03:12:49;;;;;;;;;;;;;;;28.41;42.65;98877.63;2087066;28;19935;-48
2022/07/10 03:13:49;;;;;;;;;;;;;;;28.40;42.66;98884.16;2092061;28;20285;-49
2022/07/10 03:14:51;;;;;;;;;;;;;;;28.41;42.75;98882.25;2091967;28;19925;-47
2022/07/10 03:15:53;;;;;;;;;;;;;;;28.42;42.80;98886.66;2091915;28;19937;-47
2022/07/10 03:16:55;;;;;;;;;;;;;;;28.41;42.60;98887.72;2092444;28;19924;-48
2022/07/10 03:17:55;;;;;;;;;;;;;;;28.40;43.09;98877.91;2092933;28;20501;-49
2022/07/10 03:18:57;;;;;;;;;;;;;;;28.41;42.83;98888.53;2092009;28;19928;-49
2022/07/10 03:19:57;;;;;;;;;;;;;;;28.40;42.71;98883.34;2092502;28;19935;-50
2022/07/10 03:20:59;;;;;;;;;;;;;;;28.40;42.68;98880.63;2088288;28;20447;-49
2022/07/10 03:21:59;;;;;;;;;;;;;;;28.41;42.65;98879.53;2091179;28;20299;-48
2022/07/10 03:23:01;;;;;;;;;;;;;;;28.40;42.78;98884.16;2092134;28;19930;-48
2022/07/10 03:24:03;;;;;;;;;;;;;;;28.40;42.71;98878.72;2092071;28;19928;-49
2022/07/10 03:25:05;;;;;;;;;;;;;;;28.40;42.72;98888.81;2091510;28;19924;-48
2022/07/10 03:26:06;;;;;;;;;;;;;;;28.38;42.76;98885.50;2091832;28;19929;-52
2022/07/10 03:27:07;;;;;;;;;;;;;;;28.37;42.79;98886.59;2090493;28;20610;-48
2022/07/10 03:28:08;;;;;;;;;;;;;;;28.38;42.69;98882.78;2088246;28;19928;-51
2022/07/10 03:29:10;;;;;;;;;;;;;;;28.34;42.71;98889.88;2087812;28;19930;-47
2022/07/10 03:30:11;;;;;;;;;;;;;;;28.34;42.91;98882.50;2089080;28;19933;-48
2022/07/10 03:31:12;;;;;;;;;;;;;;;28.32;42.83;98881.94;2091297;28;19929;-47
2022/07/10 03:32:13;;;;;;;;;;;;;;;28.32;42.70;98876.47;2091935;28;19932;-50
2022/07/10 03:33:14;;;;;;;;;;;;;;;28.33;42.72;98880.00;2092044;28;19928;-50
2022/07/10 03:34:15;;;;;;;;;;;;;;;28.34;42.84;98884.41;2092280;28;20382;-48
2022/07/10 03:35:16;;;;;;;;;;;;;;;28.33;42.77;98882.75;2090006;28;19928;-50
2022/07/10 03:36:18;;;;;;;;;;;;;;;28.35;42.82;98883.31;2091483;28;19928;-49
2022/07/10 03:37:19;;;;;;;;;;;;;;;28.35;42.73;98875.13;2092439;28;20577;-48
2022/07/10 03:38:20;;;;;;;;;;;;;;;28.36;43.02;98880.34;2092374;28;19940;-51
2022/07/10 03:39:22;;;;;;;;;;;;;;;28.34;42.78;98884.41;2092128;28;20006;-49
2022/07/10 03:40:25;;;;;;;;;;;;;;;28.34;43.12;98877.03;2089239;28;19935;-46
2022/07/10 03:41:26;;;;;;;;;;;;;;;28.32;43.07;98876.47;2092213;28;20378;-49
2022/07/10 03:42:27;;;;;;;;;;;;;;;28.33;42.87;98880.00;2087760;28;19938;-48
2022/07/10 03:43:28;;;;;;;;;;;;;;;28.30;43.08;98875.91;2090629;28;19925;-50
2022/07/10 03:44:29;;;;;;;;;;;;;;;28.30;42.88;98878.63;2091570;28;19931;-50
2022/07/10 03:45:31;;;;;;;;;;;;;;;28.33;42.85;98877.28;2088444;28;19928;-50
2022/07/10 03:46:31;;;;;;;;;;;;;;;28.33;43.12;98877.28;2091962;28;19951;-50
2022/07/10 03:47:33;;;;;;;;;;;;;;;28.33;43.12;98877.28;2092343;28;20492;-49
2022/07/10 03:48:34;;;;;;;;;;;;;;;28.34;43.10;98874.31;2092066;28;19924;-46
2022/07/10 03:49:35;;;;;;;;;;;;;;;28.34;43.10;98878.94;2092587;28;19986;-50
2022/07/10 03:50:36;;;;;;;;;;;;;;;28.30;42.72;98873.16;2091474;28;19929;-50
2022/07/10 03:51:37;;;;;;;;;;;;;;;28.32;43.04;98872.94;2092336;28;20375;-50
2022/07/10 03:52:38;;;;;;;;;;;;;;;28.32;42.76;98876.47;2090233;28;19928;-50
2022/07/10 03:53:40;;;;;;;;;;;;;;;28.33;42.84;98872.66;2090520;28;20379;-50
2022/07/10 03:54:42;;;;;;;;;;;;;;;28.32;43.12;98875.66;2091748;28;20354;-47
2022/07/10 03:55:43;;;;;;;;;;;;;;;28.31;42.97;98871.28;2091194;28;19928;-46
2022/07/10 03:58:02;;;;;;;;;;;;;;;28.28;42.77;98878.91;2091998;28;19924;-48
2022/07/10 03:59:03;;;;;;;;;;;;;;;28.27;42.95;98874.50;2090603;28;19928;-48
2022/07/10 04:00:05;;;;;;;;;;;;;;;28.31;42.93;98874.03;2090814;28;19932;-49
2022/07/10 04:01:06;;;;;;;;;;;;;;;28.31;42.85;98874.84;2089258;28;19928;-49
2022/07/10 04:02:08;;;;;;;;;;;;;;;28.29;42.71;98875.09;2092060;28;20378;-48
2022/07/10 04:03:08;;;;;;;;;;;;;;;28.29;43.15;98877.81;2091757;28;19928;-51
2022/07/10 04:04:10;;;;;;;;;;;;;;;28.31;42.85;98874.03;2092759;28;21468;-47
2022/07/10 04:05:11;;;;;;;;;;;;;;;28.31;42.86;98877.56;2087809;28;19928;-48
2022/07/10 04:06:12;;;;;;;;;;;;;;;28.28;42.92;98873.44;2088977;28;19930;-49
2022/07/10 04:07:13;;;;;;;;;;;;;;;28.27;43.04;98873.69;2092239;28;20628;-48
2022/07/10 04:08:14;;;;;;;;;;;;;;;28.31;42.83;98876.75;2091905;28;19931;-49
2022/07/10 04:09:15;;;;;;;;;;;;;;;28.28;43.07;98864.44;2091194;28;19932;-48
2022/07/10 04:10:18;;;;;;;;;;;;;;;28.26;43.15;98872.88;2089621;28;19943;-47
2022/07/10 04:11:19;;;;;;;;;;;;;;;28.28;42.88;98869.91;2090476;28;19939;-47
2022/07/10 04:12:20;;;;;;;;;;;;;;;28.26;42.93;98872.88;2090654;28;19954;-50
2022/07/10 04:13:21;;;;;;;;;;;;;;;28.28;42.66;98864.44;2092074;28;19925;-50
2022/07/10 04:14:22;;;;;;;;;;;;;;;28.27;43.04;98876.44;2092295;28;19951;-50
2022/07/10 04:15:24;;;;;;;;;;;;;;;28.27;42.64;98871.78;2091641;28;19928;-51
2022/07/10 04:16:24;;;;;;;;;;;;;;;28.27;42.82;98873.69;2092097;28;19929;-49
2022/07/10 04:17:26;;;;;;;;;;;;;;;28.27;42.96;98874.50;2092019;28;20505;-49
2022/07/10 04:18:27;;;;;;;;;;;;;;;28.24;42.93;98875.03;2092931;28;19986;-49
2022/07/10 04:19:28;;;;;;;;;;;;;;;28.24;42.91;98875.03;2089827;28;20442;-48
2022/07/10 04:20:30;;;;;;;;;;;;;;;28.23;43.00;98869.88;2091301;28;19936;-48
2022/07/10 04:21:30;;;;;;;;;;;;;;;28.23;42.88;98873.41;2092040;28;20453;-46
2022/07/10 04:22:32;;;;;;;;;;;;;;;28.24;42.81;98875.03;2089961;28;19932;-53
2022/07/10 04:23:33;;;;;;;;;;;;;;;28.25;42.97;98875.84;2092521;28;19936;-52
2022/07/10 04:24:34;;;;;;;;;;;;;;;28.24;42.75;98876.94;2092099;28;20358;-52
2022/07/10 04:25:37;;;;;;;;;;;;;;;28.23;43.06;98873.41;2091136;28;19932;-47
2022/07/10 04:26:38;;;;;;;;;;;;;;;28.22;43.09;98877.22;2089931;28;20587;-49
2022/07/10 04:27:39;;;;;;;;;;;;;;;28.23;42.91;98867.13;2087892;28;19928;-50
2022/07/10 04:28:41;;;;;;;;;;;;;;;28.24;42.90;98875.03;2089745;28;20367;-50
2022/07/10 04:29:41;;;;;;;;;;;;;;;28.27;42.81;98879.16;2091012;28;19939;-50
2022/07/10 04:30:43;;;;;;;;;;;;;;;28.24;42.81;98868.78;2090705;28;19964;-51
2022/07/10 04:31:44;;;;;;;;;;;;;;;28.23;42.94;98870.69;2091428;28;19932;-50
2022/07/10 04:32:45;;;;;;;;;;;;;;;28.24;42.83;98868.78;2091920;28;19935;-50
2022/07/10 04:33:46;;;;;;;;;;;;;;;28.24;42.69;98872.31;2091784;28;19931;-49
2022/07/10 04:34:47;;;;;;;;;;;;;;;28.22;42.76;98866.31;2090590;28;20022;-46
2022/07/10 04:35:48;;;;;;;;;;;;;;;28.22;43.08;98870.94;2089346;28;19939;-48
2022/07/10 04:36:49;;;;;;;;;;;;;;;28.21;42.91;98861.94;2090503;28;19932;-50
2022/07/10 04:37:50;;;;;;;;;;;;;;;28.21;43.07;98863.84;2092202;28;19931;-49
2022/07/10 04:38:51;;;;;;;;;;;;;;;28.20;43.13;98868.47;2091059;28;20470;-48
2022/07/10 04:39:52;;;;;;;;;;;;;;;28.20;42.98;98867.66;2092811;28;19931;-48
2022/07/10 04:40:55;;;;;;;;;;;;;;;28.21;43.12;98867.38;2091633;28;20027;-48
2022/07/10 04:41:55;;;;;;;;;;;;;;;28.21;43.07;98863.84;2092605;28;19931;-49
2022/07/10 04:42:58;;;;;;;;;;;;;;;28.20;43.13;98857.56;2089466;28;19931;-48
2022/07/10 04:43:58;;;;;;;;;;;;;;;28.22;43.13;98862.75;2086895;28;20111;-46
2022/07/10 04:45:00;;;;;;;;;;;;;;;28.21;43.08;98864.66;2090175;28;20031;-49
2022/07/10 04:46:00;;;;;;;;;;;;;;;28.19;43.08;98864.09;2088850;28;20640;-48
2022/07/10 04:47:02;;;;;;;;;;;;;;;28.19;43.11;98866.81;2091115;28;19963;-48
2022/07/10 04:48:04;;;;;;;;;;;;;;;28.19;42.83;98857.81;2092586;28;19931;-45
2022/07/10 04:49:05;;;;;;;;;;;;;;;28.20;42.96;98860.28;2091748;28;19925;-48
2022/07/10 04:50:07;;;;;;;;;;;;;;;28.19;42.96;98855.09;2091783;28;19996;-47
2022/07/10 04:51:09;;;;;;;;;;;;;;;28.20;42.88;98859.47;2091587;28;20282;-48
2022/07/10 04:52:09;;;;;;;;;;;;;;;28.18;42.85;98859.72;2092083;28;19933;-49
2022/07/10 04:53:11;;;;;;;;;;;;;;;28.19;42.90;98858.63;2087376;28;19936;-49
2022/07/10 04:54:12;;;;;;;;;;;;;;;28.21;42.78;98858.38;2090097;28;19940;-45
2022/07/10 04:55:13;;;;;;;;;;;;;;;28.17;43.14;98858.09;2088545;28;19932;-50
2022/07/10 04:56:15;;;;;;;;;;;;;;;28.17;42.92;98857.28;2091902;28;19978;-49
2022/07/10 04:57:17;;;;;;;;;;;;;;;28.18;42.80;98859.72;2091727;28;19939;-49
2022/07/10 04:58:18;;;;;;;;;;;;;;;28.19;42.78;98855.91;2088363;28;19935;-51
2022/07/10 04:59:19;;;;;;;;;;;;;;;28.17;43.22;98855.38;2090090;28;19964;-48
2022/07/10 05:00:20;;;;;;;;;;;;;;;28.19;43.12;98860.53;2090165;28;19939;-48
2022/07/10 05:01:21;;;;;;;;;;;;;;;28.20;42.71;98856.75;2091547;28;19963;-48
2022/07/10 05:02:22;;;;;;;;;;;;;;;28.17;43.15;98855.38;2089575;28;19962;-47
2022/07/10 05:03:23;;;;;;;;;;;;;;;28.16;43.20;98847.44;2091222;28;19935;-50
2022/07/10 05:04:25;;;;;;;;;;;;;;;28.14;42.99;98847.72;2092215;28;19924;-51
2022/07/10 05:05:26;;;;;;;;;;;;;;;28.15;42.92;98857.53;2091378;28;20678;-49
2022/07/10 05:06:27;;;;;;;;;;;;;;;28.14;43.19;98855.06;2092299;28;20032;-51
2022/07/10 05:07:28;;;;;;;;;;;;;;;28.15;43.10;98849.34;2091277;28;19935;-48
2022/07/10 05:08:29;;;;;;;;;;;;;;;28.15;42.87;98854.81;2091890;28;19924;-49
2022/07/10 05:09:30;;;;;;;;;;;;;;;28.12;43.19;98844.41;2090911;28;20263;-48
2022/07/10 05:10:31;;;;;;;;;;;;;;;28.13;43.09;98843.31;2075626;28;19931;-51
2022/07/10 05:11:33;;;;;;;;;;;;;;;28.12;43.02;98849.88;2087198;28;19928;-47
2022/07/10 05:12:35;;;;;;;;;;;;;;;28.13;43.09;98842.50;2091114;28;19931;-50
2022/07/10 05:13:35;;;;;;;;;;;;;;;28.13;43.17;98845.25;2088049;28;19929;-50
2022/07/10 05:14:37;;;;;;;;;;;;;;;28.12;42.87;98846.31;2088139;28;19930;-52
2022/07/10 05:15:37;;;;;;;;;;;;;;;28.12;43.20;98844.41;2089785;28;19933;-48
2022/07/10 05:16:39;;;;;;;;;;;;;;;28.12;43.21;98838.16;2086606;28;19928;-51
2022/07/10 05:17:39;;;;;;;;;;;;;;;28.12;43.19;98838.16;2086978;28;19931;-50
2022/07/10 05:18:41;;;;;;;;;;;;;;;28.11;43.17;98837.34;2090033;28;19959;-52
2022/07/10 05:19:42;;;;;;;;;;;;;;;28.09;43.25;98846.84;2090794;28;19951;-48
2022/07/10 05:20:44;;;;;;;;;;;;;;;28.12;43.00;98847.16;2088563;28;19956;-48
2022/07/10 05:21:45;;;;;;;;;;;;;;;28.14;43.16;98836.81;2086998;28;19935;-54
2022/07/10 05:22:46;;;;;;;;;;;;;;;28.11;43.18;98839.22;2091461;28;19924;-48